Spences Bridge, Canada
Current Conditions -  °F | °C
As of 9:00 PM on Saturday 22 Nov 2014 (Local Time) from CWLY Reporting Station
Few Clouds Few Clouds  
Wind Chill: 37°   Ceiling: Unl
Heat Index: 45°   Visibility: 9mi
Dew Point: 36°   Wind: 16mph
Humidity: 71%   Direction: 200°SSW
Pressure: 29.9"   Gusts: 30mph
Location:  50.42°N, 121.35°W
Report Text: CWLY 230500Z AUTO 20014G26KT 9SM FEW190 07/02 A2990 RMK SLP129
Loading
Personal Weather Stations






























Interactive Weather Map New forecast layout! Learn more

10-Day Weather Forecast

Advertisements
Track Severe Weather on mobile